createdAt,value
2019-04-01T00:01:28.444Z,3.90
2019-04-01T00:04:01.295Z,3.90
2019-04-01T00:06:56.725Z,3.90
2019-04-01T00:12:24.582Z,3.80
2019-04-01T00:15:08.976Z,3.80
2019-04-01T00:17:52.917Z,3.80
2019-04-01T00:20:37.644Z,3.80
2019-04-01T00:23:21.889Z,3.80
2019-04-01T00:26:05.639Z,3.80
2019-04-01T00:28:49.904Z,3.70
2019-04-01T00:31:33.694Z,3.70
2019-04-01T00:34:18.381Z,3.70
2019-04-01T00:37:06.733Z,3.70
2019-04-01T00:39:52.819Z,3.70
2019-04-01T00:42:59.248Z,3.60
2019-04-01T00:45:44.770Z,3.60
2019-04-01T00:48:29.224Z,3.60
2019-04-01T00:51:12.845Z,3.60
2019-04-01T00:53:57.305Z,3.60
2019-04-01T00:56:41.266Z,3.60
2019-04-01T00:59:25.879Z,3.50
2019-04-01T01:01:58.526Z,3.50
2019-04-01T01:04:42.658Z,3.50
2019-04-01T01:07:26.923Z,3.50
2019-04-01T01:10:11.138Z,3.50
2019-04-01T01:12:54.804Z,3.50
2019-04-01T01:15:39.226Z,3.40
2019-04-01T01:18:23.673Z,3.40
2019-04-01T01:21:08.464Z,3.40
2019-04-01T01:23:52.239Z,3.40
2019-04-01T01:26:36.379Z,3.40
2019-04-01T01:29:20.448Z,3.30
2019-04-01T01:31:53.924Z,3.30
2019-04-01T01:34:38.216Z,3.30
2019-04-01T01:37:22.540Z,3.30
2019-04-01T01:40:08.558Z,3.30
2019-04-01T01:42:52.964Z,3.20
2019-04-01T01:45:37.277Z,3.30
2019-04-01T01:48:09.901Z,3.20
2019-04-01T01:50:53.832Z,3.20
2019-04-01T01:53:40.015Z,3.20
2019-04-01T01:56:23.411Z,3.10
2019-04-01T01:59:07.693Z,3.10
2019-04-01T02:01:51.925Z,3.10
2019-04-01T02:04:36.499Z,3.10
2019-04-01T02:07:20.977Z,3.10
2019-04-01T02:10:06.476Z,3.00
2019-04-01T02:12:51.577Z,3.00
2019-04-01T02:15:35.696Z,3.00
2019-04-01T02:18:21.406Z,3.00
2019-04-01T02:21:05.560Z,3.00
2019-04-01T02:23:49.830Z,3.00
2019-04-01T02:26:35.541Z,3.00
2019-04-01T02:29:19.164Z,2.90
2019-04-01T02:32:02.929Z,2.90
2019-04-01T02:34:46.889Z,2.90
2019-04-01T02:37:31.104Z,2.90
2019-04-01T02:40:15.114Z,2.80
2019-04-01T02:42:59.582Z,2.80
2019-04-01T02:45:43.272Z,2.80
2019-04-01T02:51:10.613Z,2.80
2019-04-01T02:53:54.209Z,2.80
2019-04-01T02:56:38.250Z,2.80
2019-04-01T02:59:22.044Z,2.70
2019-04-01T03:02:05.781Z,2.70
2019-04-01T03:04:49.668Z,2.70
2019-04-01T03:07:34.053Z,2.60
2019-04-01T03:10:17.944Z,2.60
2019-04-01T03:13:02.394Z,2.60
2019-04-01T03:15:46.328Z,2.60
2019-04-01T03:18:30.339Z,2.50
2019-04-01T03:23:58.351Z,2.50
2019-04-01T03:26:42.131Z,2.40
2019-04-01T03:29:25.011Z,2.40
2019-04-01T03:32:12.320Z,2.40
2019-04-01T03:34:56.505Z,2.40
2019-04-01T03:37:41.519Z,2.40
2019-04-01T03:40:25.570Z,2.40
2019-04-01T03:43:09.572Z,2.30
2019-04-01T03:45:53.745Z,2.30
2019-04-01T03:48:39.659Z,2.40
2019-04-01T03:51:24.000Z,2.30
2019-04-01T03:54:08.120Z,2.30
2019-04-01T03:56:53.443Z,2.30
2019-04-01T03:59:37.828Z,2.30
2019-04-01T04:02:21.518Z,2.20
2019-04-01T04:05:05.182Z,2.20
2019-04-01T04:07:49.518Z,2.20
2019-04-01T04:10:33.676Z,2.20
2019-04-01T04:13:17.444Z,2.20
2019-04-01T04:16:01.645Z,2.20
2019-04-01T04:18:33.934Z,2.20
2019-04-01T04:21:23.500Z,2.20
2019-04-01T04:24:05.476Z,2.20
2019-04-01T04:26:49.460Z,2.20
2019-04-01T04:29:33.223Z,2.20
2019-04-01T04:32:17.660Z,2.20
2019-04-01T04:35:01.630Z,2.20
2019-04-01T04:37:34.270Z,2.20
2019-04-01T04:40:18.181Z,2.10
2019-04-01T04:43:01.953Z,2.20
2019-04-01T04:45:45.668Z,2.10
2019-04-01T04:48:29.588Z,2.10
2019-04-01T04:51:13.649Z,2.20
2019-04-01T04:53:58.799Z,2.10
2019-04-01T04:56:43.409Z,2.20
2019-04-01T04:59:27.431Z,2.10
2019-04-01T05:02:12.150Z,2.10
2019-04-01T05:04:56.044Z,2.10
2019-04-01T05:07:41.095Z,2.10
2019-04-01T05:13:18.426Z,2.10
2019-04-01T05:15:51.372Z,2.10
2019-04-01T05:18:36.375Z,2.10
2019-04-01T05:21:09.317Z,2.20
2019-04-01T05:23:53.928Z,2.20
2019-04-01T05:29:41.549Z,2.30
2019-04-01T05:32:26.787Z,2.30
2019-04-01T05:35:11.633Z,2.40
2019-04-01T05:37:56.072Z,2.50
2019-04-01T05:40:39.992Z,2.50
2019-04-01T05:43:24.676Z,2.60
2019-04-01T05:46:09.004Z,2.70
2019-04-01T05:48:53.358Z,2.80
2019-04-01T05:54:41.336Z,2.90
2019-04-01T05:57:27.015Z,3.00
2019-04-01T06:00:13.269Z,3.10
2019-04-01T06:02:57.335Z,3.30
2019-04-01T06:05:30.558Z,3.30
2019-04-01T06:08:14.901Z,3.50
2019-04-01T06:10:58.661Z,3.60
2019-04-01T06:13:42.448Z,3.70
2019-04-01T06:16:27.017Z,3.80
2019-04-01T06:19:11.232Z,4.00
2019-04-01T06:21:55.671Z,4.00
2019-04-01T06:24:40.177Z,4.10
2019-04-01T06:27:25.362Z,4.20
2019-04-01T06:30:09.751Z,4.40
2019-04-01T06:32:53.727Z,4.50
2019-04-01T06:35:38.155Z,4.70
2019-04-01T06:38:22.121Z,4.80
2019-04-01T06:41:06.595Z,5.00
2019-04-01T06:43:51.699Z,5.30
2019-04-01T06:46:36.287Z,5.50
2019-04-01T06:49:20.558Z,5.90
2019-04-01T06:52:04.362Z,6.10
2019-04-01T06:54:36.684Z,6.30
2019-04-01T06:57:21.054Z,6.50
2019-04-01T07:00:05.495Z,6.70
2019-04-01T07:02:50.286Z,6.90
2019-04-01T07:05:33.770Z,7.20
2019-04-01T07:08:18.483Z,7.30
2019-04-01T07:14:08.176Z,7.60
2019-04-01T07:16:51.718Z,7.80
2019-04-01T07:19:35.810Z,7.90
2019-04-01T07:22:20.305Z,8.00
2019-04-01T07:25:04.823Z,8.10
2019-04-01T07:27:49.807Z,8.20
2019-04-01T07:30:33.768Z,8.40
2019-04-01T07:33:17.573Z,8.50
2019-04-01T07:36:03.375Z,8.50
2019-04-01T07:38:47.236Z,8.60
2019-04-01T07:41:31.394Z,8.50
2019-04-01T07:44:15.436Z,8.70
2019-04-01T07:46:59.798Z,8.70
2019-04-01T07:49:32.395Z,8.90
2019-04-01T07:52:26.204Z,8.90
2019-04-01T07:55:09.949Z,9.00
2019-04-01T07:57:53.838Z,9.20
2019-04-01T08:00:38.112Z,9.10
2019-04-01T08:03:22.550Z,9.20
2019-04-01T08:06:07.307Z,9.40
2019-04-01T08:08:52.610Z,9.30
2019-04-01T08:11:37.200Z,9.40
2019-04-01T08:14:22.238Z,9.40
2019-04-01T08:17:08.582Z,9.60
2019-04-01T08:19:52.718Z,9.50
2019-04-01T08:22:43.307Z,9.70
2019-04-01T08:25:39.306Z,9.80
2019-04-01T08:28:24.000Z,9.70
2019-04-01T08:31:09.088Z,9.80
2019-04-01T08:34:02.061Z,10.00
2019-04-01T08:36:47.027Z,10.20
2019-04-01T08:39:31.044Z,10.40
2019-04-01T08:42:15.384Z,10.50
2019-04-01T08:44:59.747Z,10.30
2019-04-01T08:47:44.852Z,10.30
2019-04-01T08:50:17.346Z,10.50
2019-04-01T08:53:01.344Z,10.70
2019-04-01T08:55:45.298Z,10.90
2019-04-01T08:58:29.599Z,11.20
2019-04-01T09:01:13.176Z,11.10
2019-04-01T09:03:46.222Z,11.40
2019-04-01T09:06:31.472Z,11.50
2019-04-01T09:09:16.408Z,11.70
2019-04-01T09:12:00.684Z,11.90
2019-04-01T09:14:44.898Z,11.70
2019-04-01T09:17:29.279Z,11.40
2019-04-01T09:20:13.213Z,11.50
2019-04-01T09:22:59.199Z,11.40
2019-04-01T09:25:43.629Z,11.40
2019-04-01T09:28:27.741Z,11.50
2019-04-01T09:31:12.236Z,12.00
2019-04-01T09:33:56.615Z,12.20
2019-04-01T09:36:40.205Z,12.70
2019-04-01T09:39:24.489Z,12.90
2019-04-01T09:42:09.090Z,13.10
2019-04-01T09:44:53.414Z,12.90
2019-04-01T09:47:38.449Z,12.70
2019-04-01T09:50:23.058Z,12.80
2019-04-01T09:53:06.976Z,12.70
2019-04-01T09:55:50.887Z,12.50
2019-04-01T09:58:35.629Z,12.20
2019-04-01T10:01:19.735Z,11.80
2019-04-01T10:04:04.257Z,12.00
2019-04-01T10:06:47.846Z,12.30
2019-04-01T10:09:31.721Z,12.70
2019-04-01T10:12:04.291Z,12.70
2019-04-01T10:14:48.525Z,12.70
2019-04-01T10:17:32.349Z,12.90
2019-04-01T10:20:16.382Z,12.60
2019-04-01T10:23:00.003Z,12.80
2019-04-01T10:25:44.418Z,12.80
2019-04-01T10:28:28.082Z,13.30
2019-04-01T10:31:12.420Z,13.00
2019-04-01T10:33:56.731Z,12.80
2019-04-01T10:36:40.593Z,13.00
2019-04-01T10:39:25.381Z,13.00
2019-04-01T10:42:09.181Z,13.00
2019-04-01T10:44:52.923Z,13.30
2019-04-01T10:47:39.847Z,13.20
2019-04-01T10:53:07.185Z,13.50
2019-04-01T10:55:50.853Z,13.60
2019-04-01T10:58:34.992Z,13.80
2019-04-01T11:01:19.217Z,14.10
2019-04-01T11:04:03.223Z,14.10
2019-04-01T11:06:47.673Z,14.20
2019-04-01T11:09:38.684Z,14.00
2019-04-01T11:12:17.945Z,13.90
2019-04-01T11:15:02.183Z,13.70
2019-04-01T11:17:46.761Z,13.40
2019-04-01T11:20:35.060Z,13.60
2019-04-01T11:23:22.891Z,13.90
2019-04-01T11:26:07.066Z,14.30
2019-04-01T11:28:42.391Z,14.60
2019-04-01T11:34:33.543Z,14.30
2019-04-01T11:37:18.048Z,14.20
2019-04-01T11:40:02.552Z,14.20
2019-04-01T11:42:35.578Z,14.30
2019-04-01T11:48:28.646Z,14.00
2019-04-01T11:51:31.430Z,14.40
2019-04-01T11:54:14.331Z,14.60
2019-04-01T11:57:03.573Z,14.20
2019-04-01T11:59:36.367Z,14.10
2019-04-01T12:02:33.443Z,14.10
2019-04-01T12:05:17.789Z,14.00
2019-04-01T12:08:03.410Z,13.80
2019-04-01T12:10:46.914Z,14.00
2019-04-01T12:13:31.322Z,13.80
2019-04-01T12:16:15.181Z,13.50
2019-04-01T12:18:59.340Z,13.50
2019-04-01T12:21:43.296Z,13.60
2019-04-01T12:24:29.478Z,13.40
2019-04-01T12:27:13.672Z,13.30
2019-04-01T12:29:59.885Z,13.50
2019-04-01T12:32:43.616Z,13.50
2019-04-01T12:35:27.805Z,13.50
2019-04-01T12:38:11.950Z,13.40
2019-04-01T12:40:55.983Z,13.50
2019-04-01T12:43:28.317Z,13.30
2019-04-01T12:46:12.059Z,13.60
2019-04-01T12:48:56.360Z,13.50
2019-04-01T12:51:41.240Z,13.50
2019-04-01T12:54:26.939Z,13.40
2019-04-01T12:57:10.830Z,13.30
2019-04-01T12:59:54.376Z,13.40
2019-04-01T13:02:42.201Z,13.60
2019-04-01T13:05:26.731Z,13.70
2019-04-01T13:08:12.396Z,13.70
2019-04-01T13:10:57.693Z,13.60
2019-04-01T13:13:42.345Z,13.20
2019-04-01T13:16:26.818Z,13.20
2019-04-01T13:18:59.338Z,13.30
2019-04-01T13:21:43.885Z,13.10
2019-04-01T13:24:27.960Z,13.00
2019-04-01T13:27:00.637Z,12.70
2019-04-01T13:29:44.929Z,12.80
2019-04-01T13:32:28.733Z,12.80
2019-04-01T13:35:12.530Z,12.90
2019-04-01T13:37:56.936Z,13.10
2019-04-01T13:40:40.767Z,13.10
2019-04-01T13:43:25.491Z,12.90
2019-04-01T13:46:10.411Z,12.90
2019-04-01T13:48:57.860Z,13.00
2019-04-01T13:51:43.661Z,13.10
2019-04-01T13:54:26.736Z,12.90
2019-04-01T13:57:11.016Z,12.60
2019-04-01T13:59:49.534Z,12.80
2019-04-01T14:02:41.803Z,12.80
2019-04-01T14:05:26.141Z,12.50
2019-04-01T14:08:10.517Z,12.60
2019-04-01T14:10:54.615Z,12.40
2019-04-01T14:13:39.360Z,12.40
2019-04-01T14:16:23.501Z,12.50
2019-04-01T14:19:07.698Z,12.40
2019-04-01T14:21:52.371Z,12.30
2019-04-01T14:24:36.628Z,12.20
2019-04-01T14:27:20.602Z,12.20
2019-04-01T14:30:05.819Z,12.20
2019-04-01T14:32:38.358Z,12.00
2019-04-01T14:35:23.883Z,12.00
2019-04-01T14:38:09.432Z,12.00
2019-04-01T14:40:53.027Z,11.90
2019-04-01T14:43:37.240Z,11.90
2019-04-01T14:46:22.062Z,11.90
2019-04-01T14:49:06.129Z,11.90
2019-04-01T14:51:50.495Z,11.90
2019-04-01T14:54:34.151Z,11.80
2019-04-01T14:57:18.105Z,11.80
2019-04-01T15:00:02.120Z,11.80
2019-04-01T15:02:47.449Z,11.80
2019-04-01T15:05:34.160Z,11.80
2019-04-01T15:08:19.518Z,11.60
2019-04-01T15:11:04.640Z,11.60
2019-04-01T15:13:49.804Z,11.60
2019-04-01T15:16:34.230Z,11.60
2019-04-01T15:19:17.855Z,11.50
2019-04-01T15:22:01.391Z,11.50
2019-04-01T15:24:45.546Z,11.40
2019-04-01T15:27:29.371Z,11.40
2019-04-01T15:30:14.229Z,11.40
2019-04-01T15:32:58.922Z,11.40
2019-04-01T15:35:43.003Z,11.40
2019-04-01T15:38:27.026Z,11.40
2019-04-01T15:40:59.391Z,11.40
2019-04-01T15:43:42.987Z,11.40
2019-04-01T15:46:28.918Z,11.40
2019-04-01T15:49:12.531Z,11.30
2019-04-01T15:51:56.474Z,11.30
2019-04-01T15:54:40.985Z,11.30
2019-04-01T15:57:25.063Z,11.20
2019-04-01T16:00:09.164Z,11.20
2019-04-01T16:02:53.345Z,11.10
2019-04-01T16:05:37.144Z,11.10
2019-04-01T16:08:21.452Z,11.10
2019-04-01T16:11:06.110Z,11.20
2019-04-01T16:13:50.590Z,11.10
2019-04-01T16:16:36.176Z,11.20
2019-04-01T16:19:20.145Z,11.10
2019-04-01T16:22:04.675Z,11.10
2019-04-01T16:24:48.509Z,11.00
2019-04-01T16:27:32.866Z,11.00
2019-04-01T16:30:18.770Z,11.00
2019-04-01T16:33:02.490Z,10.90
2019-04-01T16:35:46.682Z,11.30
2019-04-01T16:38:32.007Z,11.20
2019-04-01T16:41:16.980Z,11.00
2019-04-01T16:44:05.367Z,11.00
2019-04-01T16:46:49.500Z,11.00
2019-04-01T16:49:34.230Z,10.80
2019-04-01T16:55:20.557Z,10.70
2019-04-01T16:58:04.424Z,10.70
2019-04-01T17:00:48.011Z,10.70
2019-04-01T17:03:32.510Z,10.60
2019-04-01T17:09:18.880Z,10.60
2019-04-01T17:12:02.888Z,10.50
2019-04-01T17:14:48.517Z,10.50
2019-04-01T17:17:33.236Z,10.40
2019-04-01T17:20:18.494Z,10.40
2019-04-01T17:23:03.508Z,10.30
2019-04-01T17:25:51.473Z,10.30
2019-04-01T17:28:35.424Z,10.20
2019-04-01T17:31:19.397Z,10.20
2019-04-01T17:34:03.221Z,10.10
2019-04-01T17:36:47.666Z,10.10
2019-04-01T17:39:34.109Z,10.00
2019-04-01T17:42:19.219Z,10.00
2019-04-01T17:44:56.319Z,10.00
2019-04-01T17:47:41.071Z,9.90
2019-04-01T17:50:29.170Z,9.80
2019-04-01T17:53:17.828Z,9.80
2019-04-01T17:56:02.091Z,9.70
2019-04-01T17:58:46.516Z,9.70
2019-04-01T18:01:30.518Z,9.60
2019-04-01T18:04:15.299Z,9.60
2019-04-01T18:07:00.286Z,9.50
2019-04-01T18:09:44.883Z,9.50
2019-04-01T18:12:29.373Z,9.40
2019-04-01T18:15:14.231Z,9.40
2019-04-01T18:17:58.264Z,9.40
2019-04-01T18:20:42.153Z,9.30
2019-04-01T18:23:26.492Z,9.20
2019-04-01T18:26:10.459Z,9.20
2019-04-01T18:28:54.102Z,9.20
2019-04-01T18:31:38.742Z,9.10
2019-04-01T18:34:23.069Z,9.10
2019-04-01T18:40:13.508Z,9.00
2019-04-01T18:42:57.503Z,9.00
2019-04-01T18:45:41.386Z,8.90
2019-04-01T18:48:25.298Z,9.00
2019-04-01T18:50:58.835Z,8.90
2019-04-01T18:53:49.583Z,8.90
2019-04-01T18:56:33.956Z,8.80
2019-04-01T18:59:19.157Z,8.80
2019-04-01T19:02:03.168Z,8.80
2019-04-01T19:04:46.810Z,8.70
2019-04-01T19:07:30.601Z,8.70
2019-04-01T19:10:15.193Z,8.60
2019-04-01T19:13:05.825Z,8.60
2019-04-01T19:15:45.671Z,8.60
2019-04-01T19:18:31.117Z,8.60
2019-04-01T19:21:15.680Z,8.60
2019-04-01T19:24:00.493Z,8.50
2019-04-01T19:26:44.798Z,8.50
2019-04-01T19:29:28.773Z,8.50
2019-04-01T19:32:14.843Z,8.40
2019-04-01T19:34:59.194Z,8.40
2019-04-01T19:37:43.605Z,8.30
2019-04-01T19:40:27.115Z,8.30
2019-04-01T19:43:11.475Z,8.30
2019-04-01T19:45:57.845Z,8.30
2019-04-01T19:48:45.573Z,8.20
2019-04-01T19:51:35.904Z,8.20
2019-04-01T19:54:33.615Z,8.20
2019-04-01T19:57:16.816Z,8.10
2019-04-01T20:00:05.266Z,8.10
2019-04-01T20:02:49.511Z,8.00
2019-04-01T20:05:33.382Z,8.10
2019-04-01T20:08:17.687Z,8.00
2019-04-01T20:11:01.803Z,8.00
2019-04-01T20:13:46.655Z,8.00
2019-04-01T20:16:30.268Z,7.90
2019-04-01T20:19:18.174Z,7.90
2019-04-01T20:22:04.130Z,7.90
2019-04-01T20:24:54.299Z,7.80
2019-04-01T20:27:44.113Z,7.80
2019-04-01T20:30:42.698Z,7.80
2019-04-01T20:33:38.708Z,7.70
2019-04-01T20:36:28.774Z,7.70
2019-04-01T20:39:10.433Z,7.70
2019-04-01T20:41:58.229Z,7.70
2019-04-01T20:44:42.848Z,7.70
2019-04-01T20:47:30.621Z,7.60
2019-04-01T20:50:18.361Z,7.60
2019-04-01T20:53:02.884Z,7.50
2019-04-01T20:55:48.366Z,7.50
2019-04-01T20:58:33.144Z,7.60
2019-04-01T21:01:21.125Z,7.50
2019-04-01T21:04:05.470Z,7.40
2019-04-01T21:06:50.160Z,7.40
2019-04-01T21:09:34.064Z,7.40
2019-04-01T21:12:17.955Z,7.40
2019-04-01T21:15:02.545Z,7.40
2019-04-01T21:17:47.164Z,7.40
2019-04-01T21:20:30.785Z,7.30
2019-04-01T21:23:14.498Z,7.30
2019-04-01T21:25:59.226Z,7.30
2019-04-01T21:28:44.773Z,7.20
2019-04-01T21:31:28.725Z,7.20
2019-04-01T21:34:13.246Z,7.20
2019-04-01T21:36:56.948Z,7.20
2019-04-01T21:39:40.853Z,7.20
2019-04-01T21:42:25.218Z,7.10
2019-04-01T21:45:10.158Z,7.10
2019-04-01T21:47:54.740Z,7.20
2019-04-01T21:50:38.795Z,7.10
2019-04-01T21:53:22.420Z,7.10
2019-04-01T21:58:49.170Z,7.00
2019-04-01T22:01:33.332Z,7.00
2019-04-01T22:04:18.182Z,7.10
2019-04-01T22:07:02.557Z,7.00
2019-04-01T22:09:47.059Z,7.00
2019-04-01T22:12:30.893Z,7.00
2019-04-01T22:15:15.206Z,7.00
2019-04-01T22:17:59.551Z,7.00
2019-04-01T22:20:45.655Z,7.00
2019-04-01T22:23:34.162Z,7.00
2019-04-01T22:26:31.311Z,6.90
2019-04-01T22:29:15.033Z,6.90
2019-04-01T22:31:59.307Z,6.80
2019-04-01T22:34:43.678Z,6.80
2019-04-01T22:37:27.969Z,6.80
2019-04-01T22:40:12.622Z,6.90
2019-04-01T22:42:45.001Z,6.90
2019-04-01T22:45:29.102Z,6.80
2019-04-01T22:48:13.217Z,6.90
2019-04-01T22:50:59.890Z,6.80
2019-04-01T22:53:32.377Z,6.80
2019-04-01T22:59:21.274Z,6.80
2019-04-01T23:02:05.719Z,6.80
2019-04-01T23:04:49.599Z,6.70
2019-04-01T23:07:34.914Z,6.70
2019-04-01T23:10:18.536Z,6.70
2019-04-01T23:13:03.263Z,6.70
2019-04-01T23:15:47.513Z,6.70
2019-04-01T23:18:31.431Z,6.70
2019-04-01T23:21:15.348Z,6.70
2019-04-01T23:24:03.724Z,6.70
2019-04-01T23:26:47.536Z,6.70
2019-04-01T23:29:31.011Z,6.70
2019-04-01T23:32:16.389Z,6.70
2019-04-01T23:34:49.962Z,6.60
2019-04-01T23:37:33.850Z,6.60
2019-04-01T23:40:07.075Z,6.50
2019-04-01T23:42:39.391Z,6.50
2019-04-01T23:45:23.807Z,6.50
2019-04-01T23:48:08.041Z,6.50
2019-04-01T23:50:56.310Z,6.50
2019-04-01T23:53:40.831Z,6.50
2019-04-01T23:56:25.010Z,6.50
2019-04-01T23:59:11.376Z,6.50
